createdAt,value
2023-06-26T00:00:28.933Z,21.03
2023-06-26T00:02:55.617Z,20.94
2023-06-26T00:05:22.098Z,20.65
2023-06-26T00:07:48.626Z,20.65
2023-06-26T00:10:15.070Z,20.83
2023-06-26T00:12:41.534Z,20.80
2023-06-26T00:15:09.123Z,20.73
2023-06-26T00:17:38.251Z,20.65
2023-06-26T00:20:06.449Z,20.72
2023-06-26T00:22:33.134Z,20.79
2023-06-26T00:24:59.605Z,20.81
2023-06-26T00:27:26.760Z,20.69
2023-06-26T00:29:53.974Z,20.66
2023-06-26T00:32:20.519Z,20.72
2023-06-26T00:34:47.924Z,20.65
2023-06-26T00:37:16.656Z,20.59
2023-06-26T00:39:43.168Z,20.59
2023-06-26T00:42:09.904Z,20.53
2023-06-26T00:44:36.507Z,20.54
2023-06-26T00:47:03.218Z,20.46
2023-06-26T00:49:29.724Z,20.45
2023-06-26T00:51:57.405Z,20.42
2023-06-26T00:54:24.282Z,20.35
2023-06-26T00:56:50.756Z,20.42
2023-06-26T00:59:17.320Z,20.53
2023-06-26T01:01:44.059Z,20.59
2023-06-26T01:04:18.658Z,20.53
2023-06-26T01:06:51.245Z,20.49
2023-06-26T01:09:20.268Z,20.42
2023-06-26T01:11:47.775Z,20.29
2023-06-26T01:14:15.548Z,20.30
2023-06-26T01:16:48.632Z,20.31
2023-06-26T01:19:27.966Z,20.09
2023-06-26T01:22:35.723Z,19.96
2023-06-26T01:25:21.773Z,20.06
2023-06-26T01:27:51.185Z,20.07
2023-06-26T01:30:19.000Z,20.14
2023-06-26T01:32:46.455Z,20.18
2023-06-26T01:35:14.531Z,20.14
2023-06-26T01:37:41.053Z,20.23
2023-06-26T01:40:09.086Z,20.29
2023-06-26T01:42:35.754Z,20.31
2023-06-26T01:45:22.649Z,20.19
2023-06-26T01:47:52.222Z,20.09
2023-06-26T01:50:23.767Z,20.01
2023-06-26T01:53:17.869Z,20.09
2023-06-26T01:55:51.773Z,20.00
2023-06-26T01:58:21.844Z,19.98
2023-06-26T02:00:48.492Z,20.06
2023-06-26T02:03:15.170Z,19.90
2023-06-26T02:05:41.902Z,20.03
2023-06-26T02:08:10.078Z,20.10
2023-06-26T02:10:37.225Z,20.16
2023-06-26T02:13:03.932Z,20.16
2023-06-26T02:15:30.403Z,19.99
2023-06-26T02:17:56.932Z,20.05
2023-06-26T02:20:23.446Z,20.09
2023-06-26T02:22:49.911Z,20.14
2023-06-26T02:25:16.384Z,20.08
2023-06-26T02:27:43.551Z,20.06
2023-06-26T02:30:10.480Z,20.04
2023-06-26T02:32:37.096Z,20.00
2023-06-26T02:35:03.899Z,19.87
2023-06-26T02:37:30.368Z,19.87
2023-06-26T02:39:57.138Z,19.88
2023-06-26T02:42:23.603Z,19.90
2023-06-26T02:44:50.069Z,19.86
2023-06-26T02:47:16.614Z,19.97
2023-06-26T02:49:44.824Z,19.92
2023-06-26T02:52:11.772Z,19.89
2023-06-26T02:54:38.217Z,19.80
2023-06-26T02:57:05.537Z,19.73
2023-06-26T02:59:33.903Z,19.64
2023-06-26T03:02:00.481Z,19.71
2023-06-26T03:04:32.349Z,19.62
2023-06-26T03:07:00.636Z,19.76
2023-06-26T03:09:27.318Z,19.76
2023-06-26T03:11:54.168Z,19.81
2023-06-26T03:14:21.314Z,19.90
2023-06-26T03:16:47.916Z,19.96
2023-06-26T03:19:14.633Z,19.86
2023-06-26T03:22:01.096Z,19.93
2023-06-26T03:24:28.129Z,19.98
2023-06-26T03:26:54.655Z,19.88
2023-06-26T03:29:21.228Z,19.87
2023-06-26T03:31:48.849Z,19.88
2023-06-26T03:34:15.611Z,19.92
2023-06-26T03:36:42.442Z,19.90
2023-06-26T03:39:09.515Z,19.89
2023-06-26T03:41:36.296Z,19.94
2023-06-26T03:44:03.152Z,19.95
2023-06-26T03:46:35.930Z,20.00
2023-06-26T03:49:02.470Z,19.99
2023-06-26T03:51:28.970Z,19.98
2023-06-26T03:53:55.452Z,19.97
2023-06-26T03:56:22.128Z,19.94
2023-06-26T03:58:49.347Z,19.91
2023-06-26T04:01:15.840Z,20.00
2023-06-26T04:03:43.624Z,20.03
2023-06-26T04:06:11.828Z,19.97
2023-06-26T04:08:38.792Z,20.02
2023-06-26T04:11:06.142Z,20.12
2023-06-26T04:13:32.590Z,20.16
2023-06-26T04:15:59.041Z,20.28
2023-06-26T04:18:25.484Z,20.27
2023-06-26T04:21:09.976Z,20.27
2023-06-26T04:23:36.578Z,20.39
2023-06-26T04:26:03.859Z,20.44
2023-06-26T04:28:30.415Z,20.51
2023-06-26T04:30:56.899Z,20.53
2023-06-26T04:33:24.458Z,20.64
2023-06-26T04:35:50.949Z,20.74
2023-06-26T04:38:17.425Z,20.79
2023-06-26T04:40:43.881Z,20.95
2023-06-26T04:43:10.516Z,21.05
2023-06-26T04:45:37.435Z,21.09
2023-06-26T04:48:04.396Z,21.19
2023-06-26T04:50:32.082Z,21.27
2023-06-26T04:52:58.667Z,21.28
2023-06-26T04:55:25.464Z,21.29
2023-06-26T04:57:52.205Z,21.32
2023-06-26T05:00:19.144Z,21.37
2023-06-26T05:02:46.298Z,21.35
2023-06-26T05:05:12.865Z,21.40
2023-06-26T05:07:39.427Z,21.43
2023-06-26T05:10:06.281Z,21.48
2023-06-26T05:12:32.756Z,21.42
2023-06-26T05:14:59.230Z,21.38
2023-06-26T05:17:25.785Z,21.40
2023-06-26T05:19:52.287Z,21.47
2023-06-26T05:22:19.362Z,21.51
2023-06-26T05:24:47.742Z,21.62
2023-06-26T05:27:22.051Z,21.72
2023-06-26T05:29:49.663Z,21.84
2023-06-26T05:32:18.739Z,21.92
2023-06-26T05:34:52.318Z,22.01
2023-06-26T05:37:23.185Z,22.10
2023-06-26T05:39:49.784Z,22.16
2023-06-26T05:42:16.669Z,22.35
2023-06-26T05:44:43.147Z,22.48
2023-06-26T05:47:09.635Z,22.60
2023-06-26T05:49:36.230Z,22.74
2023-06-26T05:52:02.959Z,22.83
2023-06-26T05:54:29.684Z,23.00
2023-06-26T05:57:00.390Z,23.14
2023-06-26T05:59:27.693Z,23.19
2023-06-26T06:01:54.665Z,23.42
2023-06-26T06:04:21.148Z,23.59
2023-06-26T06:06:47.750Z,23.74
2023-06-26T06:09:14.235Z,23.89
2023-06-26T06:11:40.853Z,24.09
2023-06-26T06:14:07.585Z,24.20
2023-06-26T06:16:34.043Z,24.32
2023-06-26T06:19:00.513Z,24.38
2023-06-26T06:21:26.962Z,24.44
2023-06-26T06:23:53.428Z,24.69
2023-06-26T06:26:20.012Z,24.84
2023-06-26T06:28:46.468Z,25.00
2023-06-26T06:31:12.922Z,25.23
2023-06-26T06:33:39.365Z,25.29
2023-06-26T06:36:05.916Z,25.39
2023-06-26T06:38:32.830Z,25.61
2023-06-26T06:40:59.311Z,25.81
2023-06-26T06:43:25.765Z,26.08
2023-06-26T06:45:52.315Z,26.08
2023-06-26T06:48:18.812Z,26.36
2023-06-26T06:50:45.258Z,26.56
2023-06-26T06:53:12.002Z,26.61
2023-06-26T06:55:38.453Z,26.91
2023-06-26T06:58:06.143Z,27.23
2023-06-26T07:00:32.969Z,27.37
2023-06-26T07:03:01.323Z,27.57
2023-06-26T07:05:27.971Z,27.73
2023-06-26T07:07:54.421Z,27.81
2023-06-26T07:10:20.853Z,27.91
2023-06-26T07:12:47.850Z,28.03
2023-06-26T07:15:14.299Z,28.18
2023-06-26T07:17:40.853Z,28.46
2023-06-26T07:20:09.381Z,28.61
2023-06-26T07:22:40.035Z,28.87
2023-06-26T07:25:10.231Z,29.02
2023-06-26T07:27:40.787Z,29.21
2023-06-26T07:30:10.067Z,29.28
2023-06-26T07:32:37.056Z,29.56
2023-06-26T07:35:03.765Z,29.51
2023-06-26T07:37:30.361Z,29.74
2023-06-26T07:39:56.948Z,29.94
2023-06-26T07:42:23.441Z,30.01
2023-06-26T07:44:49.926Z,30.22
2023-06-26T07:47:16.581Z,30.16
2023-06-26T07:49:43.119Z,30.21
2023-06-26T07:52:12.391Z,30.35
2023-06-26T07:54:38.970Z,30.45
2023-06-26T07:57:09.908Z,30.72
2023-06-26T07:59:36.737Z,30.80
2023-06-26T08:02:03.532Z,30.88
2023-06-26T08:04:34.858Z,31.01
2023-06-26T08:07:02.557Z,30.84
2023-06-26T08:09:30.360Z,30.91
2023-06-26T08:11:58.067Z,30.85
2023-06-26T08:14:24.609Z,30.96
2023-06-26T08:16:51.643Z,31.00
2023-06-26T08:19:18.624Z,31.03
2023-06-26T08:21:46.707Z,30.88
2023-06-26T08:24:20.158Z,31.31
2023-06-26T08:26:47.924Z,31.42
2023-06-26T08:29:14.398Z,31.66
2023-06-26T08:31:41.653Z,31.72
2023-06-26T08:34:08.745Z,31.70
2023-06-26T08:36:35.240Z,31.78
2023-06-26T08:39:01.733Z,32.17
2023-06-26T08:41:28.279Z,32.25
2023-06-26T08:43:54.892Z,32.32
2023-06-26T08:46:21.360Z,32.18
2023-06-26T08:48:56.950Z,32.62
2023-06-26T08:51:27.167Z,32.32
2023-06-26T08:54:01.759Z,32.39
2023-06-26T08:56:32.945Z,32.48
2023-06-26T08:58:59.584Z,32.47
2023-06-26T09:01:26.447Z,32.57
2023-06-26T09:03:53.326Z,32.62
2023-06-26T09:06:20.012Z,32.17
2023-06-26T09:08:47.075Z,32.34
2023-06-26T09:11:13.560Z,32.49
2023-06-26T09:13:40.834Z,32.51
2023-06-26T09:16:09.164Z,32.69
2023-06-26T09:18:36.213Z,32.35
2023-06-26T09:21:09.090Z,32.33
2023-06-26T09:23:36.578Z,32.41
2023-06-26T09:26:04.935Z,32.47
2023-06-26T09:28:34.252Z,32.92
2023-06-26T09:31:08.946Z,32.65
2023-06-26T09:33:38.091Z,33.22
2023-06-26T09:36:20.250Z,33.18
2023-06-26T09:38:46.701Z,33.09
2023-06-26T09:41:16.393Z,32.99
2023-06-26T09:43:52.358Z,33.30
2023-06-26T09:46:26.926Z,33.30
2023-06-26T09:49:05.407Z,33.36
2023-06-26T09:51:33.672Z,33.59
2023-06-26T09:54:01.188Z,33.45
2023-06-26T09:56:29.181Z,33.49
2023-06-26T09:58:58.236Z,33.43
2023-06-26T10:01:25.850Z,33.46
2023-06-26T10:03:53.013Z,33.44
2023-06-26T10:06:23.192Z,33.51
2023-06-26T10:08:49.821Z,33.43
2023-06-26T10:11:20.185Z,33.58
2023-06-26T10:13:50.311Z,33.58
2023-06-26T10:16:23.371Z,32.87
2023-06-26T10:18:53.991Z,33.42
2023-06-26T10:21:23.257Z,33.75
2023-06-26T10:23:52.844Z,33.69
2023-06-26T10:26:22.197Z,33.80
2023-06-26T10:28:53.129Z,33.67
2023-06-26T10:31:24.116Z,34.22
2023-06-26T10:33:51.198Z,34.09
2023-06-26T10:36:19.900Z,34.17
2023-06-26T10:38:54.494Z,33.95
2023-06-26T10:41:23.543Z,34.08
2023-06-26T10:44:00.646Z,33.70
2023-06-26T10:46:27.957Z,33.98
2023-06-26T10:48:59.838Z,34.37
2023-06-26T10:51:30.076Z,33.91
2023-06-26T10:53:57.654Z,33.79
2023-06-26T10:56:43.913Z,34.30
2023-06-26T10:59:19.170Z,34.36
2023-06-26T11:01:48.070Z,34.57
2023-06-26T11:04:17.506Z,34.59
2023-06-26T11:06:46.998Z,34.72
2023-06-26T11:09:16.604Z,34.46
2023-06-26T11:11:52.192Z,34.54
2023-06-26T11:14:20.206Z,33.60
2023-06-26T11:16:46.928Z,34.25
2023-06-26T11:19:14.924Z,34.23
2023-06-26T11:21:41.725Z,34.72
2023-06-26T11:24:08.748Z,34.65
2023-06-26T11:26:45.658Z,34.78
2023-06-26T11:29:13.173Z,34.71
2023-06-26T11:31:41.433Z,34.89
2023-06-26T11:34:13.507Z,34.85
2023-06-26T11:36:43.212Z,35.03
2023-06-26T11:39:09.791Z,34.86
2023-06-26T11:41:37.506Z,35.02
2023-06-26T11:44:05.298Z,35.23
2023-06-26T11:46:32.863Z,35.36
2023-06-26T11:48:59.586Z,35.13
2023-06-26T11:51:29.732Z,35.23
2023-06-26T11:53:56.138Z,35.22
2023-06-26T11:56:27.150Z,35.31
2023-06-26T11:59:03.205Z,35.75
2023-06-26T12:01:34.072Z,35.68
2023-06-26T12:04:04.028Z,35.20
2023-06-26T12:06:32.563Z,35.38
2023-06-26T12:09:01.539Z,35.56
2023-06-26T12:11:30.904Z,35.50
2023-06-26T12:13:58.587Z,35.86
2023-06-26T12:16:25.415Z,36.26
2023-06-26T12:18:52.148Z,36.05
2023-06-26T12:21:38.872Z,35.85
2023-06-26T12:24:07.339Z,35.95
2023-06-26T12:26:37.990Z,35.98
2023-06-26T12:29:08.782Z,36.18
2023-06-26T12:31:37.222Z,36.11
2023-06-26T12:34:10.359Z,35.85
2023-06-26T12:36:49.823Z,35.34
2023-06-26T12:39:20.691Z,35.41
2023-06-26T12:41:53.404Z,35.78
2023-06-26T12:44:25.855Z,36.21
2023-06-26T12:46:59.122Z,36.46
2023-06-26T12:49:38.651Z,36.25
2023-06-26T12:52:07.574Z,35.55
2023-06-26T12:54:34.968Z,35.77
2023-06-26T12:57:01.617Z,35.59
2023-06-26T12:59:28.099Z,35.36
2023-06-26T13:01:54.665Z,35.20
2023-06-26T13:04:21.311Z,34.98
2023-06-26T13:06:47.788Z,35.11
2023-06-26T13:09:14.293Z,34.85
2023-06-26T13:11:40.761Z,34.83
2023-06-26T13:14:11.023Z,34.71
2023-06-26T13:16:38.368Z,34.71
2023-06-26T13:19:04.802Z,34.44
2023-06-26T13:21:31.299Z,34.55
2023-06-26T13:23:58.290Z,34.65
2023-06-26T13:26:36.801Z,34.42
2023-06-26T13:29:04.599Z,34.39
2023-06-26T13:31:31.223Z,34.30
2023-06-26T13:33:59.464Z,34.39
2023-06-26T13:36:26.231Z,34.26
2023-06-26T13:38:57.170Z,34.06
2023-06-26T13:41:24.859Z,34.09
2023-06-26T13:43:51.777Z,34.11
2023-06-26T13:46:19.166Z,34.23
2023-06-26T13:48:46.727Z,34.07
2023-06-26T13:51:13.655Z,33.87
2023-06-26T13:53:40.187Z,33.92
2023-06-26T13:56:06.709Z,33.78
2023-06-26T13:58:35.535Z,32.24
2023-06-26T14:01:01.975Z,31.80
2023-06-26T14:03:31.404Z,31.00
2023-06-26T14:05:57.987Z,29.85
2023-06-26T14:08:24.531Z,29.03
2023-06-26T14:10:51.047Z,28.53
2023-06-26T14:13:17.874Z,27.79
2023-06-26T14:15:44.965Z,27.40
2023-06-26T14:18:11.818Z,26.99
2023-06-26T14:20:38.529Z,26.47
2023-06-26T14:23:05.264Z,25.92
2023-06-26T14:25:31.759Z,25.25
2023-06-26T14:27:59.386Z,24.78
2023-06-26T14:30:26.073Z,24.57
2023-06-26T14:32:52.617Z,24.46
2023-06-26T14:35:19.381Z,24.19
2023-06-26T14:37:45.852Z,23.93
2023-06-26T14:40:12.915Z,23.53
2023-06-26T14:42:39.846Z,23.34
2023-06-26T14:45:07.528Z,23.48
2023-06-26T14:47:34.693Z,23.11
2023-06-26T14:50:01.443Z,23.01
2023-06-26T14:52:27.946Z,22.83
2023-06-26T14:54:54.448Z,22.55
2023-06-26T14:57:20.948Z,22.66
2023-06-26T14:59:47.554Z,22.77
2023-06-26T15:02:14.092Z,22.65
2023-06-26T15:04:40.582Z,22.83
2023-06-26T15:07:07.060Z,22.98
2023-06-26T15:09:33.591Z,23.07
2023-06-26T15:12:00.236Z,23.05
2023-06-26T15:14:26.693Z,22.96
2023-06-26T15:16:53.341Z,23.28
2023-06-26T15:19:19.976Z,23.37
2023-06-26T15:21:46.490Z,23.34
2023-06-26T15:24:12.983Z,23.50
2023-06-26T15:26:39.569Z,23.45
2023-06-26T15:29:06.528Z,23.58
2023-06-26T15:31:33.191Z,23.48
2023-06-26T15:33:59.723Z,23.60
2023-06-26T15:36:27.138Z,23.46
2023-06-26T15:38:53.676Z,23.46
2023-06-26T15:41:20.208Z,23.47
2023-06-26T15:43:46.729Z,23.59
2023-06-26T15:46:13.220Z,23.68
2023-06-26T15:48:41.880Z,23.38
2023-06-26T15:51:08.756Z,23.47
2023-06-26T15:53:38.401Z,23.44
2023-06-26T15:56:09.868Z,23.44
2023-06-26T15:58:36.954Z,23.51
2023-06-26T16:01:04.220Z,23.44
2023-06-26T16:03:31.064Z,23.60
2023-06-26T16:05:57.535Z,23.43
2023-06-26T16:08:24.148Z,23.51
2023-06-26T16:10:50.672Z,23.50
2023-06-26T16:13:19.717Z,23.49
2023-06-26T16:15:46.925Z,23.61
2023-06-26T16:18:13.400Z,23.57
2023-06-26T16:20:39.867Z,23.63
2023-06-26T16:23:06.323Z,23.51
2023-06-26T16:25:32.857Z,23.65
2023-06-26T16:27:59.786Z,23.52
2023-06-26T16:30:26.300Z,23.48
2023-06-26T16:32:54.668Z,23.36
2023-06-26T16:35:21.207Z,23.45
2023-06-26T16:37:47.672Z,23.49
2023-06-26T16:40:15.332Z,23.57
2023-06-26T16:42:41.890Z,23.49
2023-06-26T16:45:09.330Z,23.30
2023-06-26T16:47:38.673Z,23.37
2023-06-26T16:50:07.404Z,23.34
2023-06-26T16:52:33.875Z,23.46
2023-06-26T16:55:00.364Z,23.43
2023-06-26T16:57:26.838Z,23.51
2023-06-26T16:59:53.989Z,23.54
2023-06-26T17:02:20.610Z,23.64
2023-06-26T17:04:47.108Z,23.66
2023-06-26T17:07:13.622Z,23.72
2023-06-26T17:09:40.141Z,23.65
2023-06-26T17:12:06.964Z,23.69
2023-06-26T17:14:33.424Z,23.72
2023-06-26T17:16:59.876Z,23.68
2023-06-26T17:19:26.598Z,23.67
2023-06-26T17:21:53.127Z,23.73
2023-06-26T17:24:19.667Z,23.64
2023-06-26T17:26:46.133Z,23.55
2023-06-26T17:29:12.639Z,23.55
2023-06-26T17:31:41.452Z,23.58
2023-06-26T17:34:08.440Z,23.62
2023-06-26T17:36:34.894Z,23.29
2023-06-26T17:39:03.485Z,23.44
2023-06-26T17:41:29.964Z,23.48
2023-06-26T17:43:56.415Z,23.54
2023-06-26T17:46:22.975Z,23.49
2023-06-26T17:48:49.523Z,23.48
2023-06-26T17:51:16.023Z,23.54
2023-06-26T17:53:42.494Z,23.56
2023-06-26T17:56:08.980Z,23.45
2023-06-26T17:58:35.662Z,23.46
2023-06-26T18:01:02.174Z,23.45
2023-06-26T18:03:28.959Z,23.47
2023-06-26T18:05:55.555Z,23.48
2023-06-26T18:08:22.052Z,23.38
2023-06-26T18:10:48.575Z,23.39
2023-06-26T18:13:15.099Z,23.33
2023-06-26T18:15:41.603Z,23.35
2023-06-26T18:18:08.122Z,23.20
2023-06-26T18:20:34.697Z,23.21
2023-06-26T18:23:01.163Z,23.01
2023-06-26T18:25:27.629Z,23.06
2023-06-26T18:27:54.134Z,23.01
2023-06-26T18:30:20.611Z,22.78
2023-06-26T18:32:47.337Z,22.57
2023-06-26T18:35:13.925Z,22.70
2023-06-26T18:37:40.555Z,22.59
2023-06-26T18:40:09.786Z,22.62
2023-06-26T18:42:36.260Z,22.66
2023-06-26T18:45:02.719Z,22.56
2023-06-26T18:47:29.600Z,22.47
2023-06-26T18:49:56.101Z,22.31
2023-06-26T18:52:22.559Z,22.28
2023-06-26T18:54:49.021Z,22.30
2023-06-26T18:57:15.687Z,22.12
2023-06-26T18:59:42.187Z,22.06
2023-06-26T19:02:08.645Z,21.91
2023-06-26T19:04:35.171Z,22.11
2023-06-26T19:07:02.087Z,22.06
2023-06-26T19:09:28.689Z,22.02
2023-06-26T19:11:55.165Z,22.02
2023-06-26T19:14:21.633Z,21.92
2023-06-26T19:16:48.157Z,21.79
2023-06-26T19:19:14.692Z,21.76
2023-06-26T19:21:41.258Z,21.72
2023-06-26T19:24:07.876Z,21.70
2023-06-26T19:26:35.731Z,21.70
2023-06-26T19:29:03.237Z,21.50
2023-06-26T19:31:29.738Z,21.63
2023-06-26T19:33:56.294Z,21.63
2023-06-26T19:36:22.952Z,21.60
2023-06-26T19:38:49.450Z,21.43
2023-06-26T19:41:15.912Z,21.46
2023-06-26T19:43:42.394Z,21.46
2023-06-26T19:46:08.845Z,21.39
2023-06-26T19:48:37.451Z,21.36
2023-06-26T19:51:04.478Z,21.33
2023-06-26T19:53:31.129Z,21.37
2023-06-26T19:55:57.731Z,21.38
2023-06-26T19:58:24.191Z,21.29
2023-06-26T20:00:50.630Z,21.30
2023-06-26T20:03:17.273Z,21.25
2023-06-26T20:05:44.265Z,21.19
2023-06-26T20:08:10.772Z,21.25
2023-06-26T20:10:37.309Z,21.10
2023-06-26T20:13:03.764Z,21.12
2023-06-26T20:15:30.296Z,21.11
2023-06-26T20:17:56.808Z,21.05
2023-06-26T20:20:23.333Z,21.04
2023-06-26T20:22:50.488Z,21.09
2023-06-26T20:25:16.973Z,20.99
2023-06-26T20:27:43.429Z,21.02
2023-06-26T20:30:10.337Z,21.00
2023-06-26T20:32:36.827Z,20.83
2023-06-26T20:35:03.364Z,20.81
2023-06-26T20:37:29.830Z,20.85
2023-06-26T20:39:56.470Z,20.80
2023-06-26T20:42:23.246Z,20.78
2023-06-26T20:44:51.349Z,20.72
2023-06-26T20:47:20.177Z,20.74
2023-06-26T20:49:47.214Z,20.74
2023-06-26T20:52:18.029Z,20.63
2023-06-26T20:54:45.423Z,20.37
2023-06-26T20:57:11.953Z,20.46
2023-06-26T20:59:39.690Z,20.50
2023-06-26T21:02:06.746Z,20.32
2023-06-26T21:04:36.523Z,20.39
2023-06-26T21:07:06.108Z,20.44
2023-06-26T21:09:32.660Z,20.29
2023-06-26T21:11:59.693Z,20.41
2023-06-26T21:14:26.198Z,20.35
2023-06-26T21:16:52.646Z,20.35
2023-06-26T21:19:19.142Z,20.28
2023-06-26T21:21:45.623Z,20.29
2023-06-26T21:24:12.085Z,20.21
2023-06-26T21:26:39.504Z,20.21
2023-06-26T21:29:06.133Z,20.20
2023-06-26T21:31:32.644Z,20.05
2023-06-26T21:33:59.651Z,20.15
2023-06-26T21:36:26.137Z,20.01
2023-06-26T21:38:52.589Z,20.17
2023-06-26T21:41:19.216Z,19.97
2023-06-26T21:43:46.291Z,20.17
2023-06-26T21:46:12.772Z,20.10
2023-06-26T21:48:39.774Z,20.02
2023-06-26T21:51:06.250Z,19.98
2023-06-26T21:53:32.719Z,19.93
2023-06-26T21:55:59.177Z,20.02
2023-06-26T21:58:25.662Z,19.94
2023-06-26T22:00:52.231Z,19.87
2023-06-26T22:03:18.979Z,19.93
2023-06-26T22:05:45.543Z,19.94
2023-06-26T22:08:12.229Z,19.87
2023-06-26T22:10:38.823Z,19.80
2023-06-26T22:13:05.454Z,19.69
2023-06-26T22:15:31.921Z,19.78
2023-06-26T22:17:58.442Z,19.67
2023-06-26T22:20:25.369Z,19.66
2023-06-26T22:22:52.533Z,19.61
2023-06-26T22:25:19.988Z,19.58
2023-06-26T22:27:48.221Z,19.63
2023-06-26T22:30:15.779Z,19.52
2023-06-26T22:32:43.746Z,19.57
2023-06-26T22:35:12.912Z,19.51
2023-06-26T22:37:39.996Z,19.46
2023-06-26T22:40:08.449Z,19.43
2023-06-26T22:42:36.106Z,19.30
2023-06-26T22:45:03.615Z,19.35
2023-06-26T22:47:30.268Z,19.31
2023-06-26T22:49:57.509Z,19.25
2023-06-26T22:52:23.992Z,19.29
2023-06-26T22:54:50.990Z,19.28
2023-06-26T22:57:17.515Z,19.20
2023-06-26T22:59:44.115Z,19.08
2023-06-26T23:02:10.586Z,19.11
2023-06-26T23:04:37.137Z,19.08
2023-06-26T23:07:03.949Z,18.96
2023-06-26T23:09:30.651Z,18.98
2023-06-26T23:11:57.146Z,18.88
2023-06-26T23:14:23.655Z,18.79
2023-06-26T23:17:04.332Z,18.64
2023-06-26T23:19:35.400Z,18.73
2023-06-26T23:22:02.925Z,18.78
2023-06-26T23:24:33.580Z,18.80
2023-06-26T23:27:00.965Z,18.69
2023-06-26T23:29:27.649Z,18.74
2023-06-26T23:31:54.258Z,18.77
2023-06-26T23:34:20.954Z,18.70
2023-06-26T23:36:50.642Z,18.74
2023-06-26T23:39:20.750Z,18.64
2023-06-26T23:41:51.181Z,18.67
2023-06-26T23:44:21.256Z,18.60
2023-06-26T23:46:48.976Z,18.57
2023-06-26T23:49:16.163Z,18.55
2023-06-26T23:51:42.613Z,18.60
2023-06-26T23:54:09.056Z,18.54
2023-06-26T23:56:35.550Z,18.52
2023-06-26T23:59:02.003Z,18.53
